This is the latest recevied weather packets stored in our database for station/object N0HOT. If no packets are shown the sender has not sent any weather packets the latest 10 day(s).
| Time | Temp. | Humidity | Pressure | Rain* | Wind** | Luminosity | Snow |
|---|---|---|---|---|---|---|---|
| 1777562511 | 10° C | 52% | 1016.7 hPa | 0 mm | - | 314 W/m² | - |
| 1777561603 | 9.44° C | 52% | 1016.7 hPa | 0 mm | - | 236 W/m² | - |
| 1777558265 | 6.67° C | 61% | 1017.8 hPa | 0 mm | - | 127 W/m² | - |
| 1777557962 | 6.67° C | 62% | 1017.8 hPa | 0 mm | - | 146 W/m² | - |
| 1777557354 | 6.11° C | 64% | 1017.8 hPa | 0 mm | - | 142 W/m² | - |
| 1777557051 | 5.56° C | 64% | 1017.8 hPa | 0 mm | - | 122 W/m² | - |
| 1777556747 | 5.56° C | 64% | 1017.8 hPa | 0 mm | - | 128 W/m² | - |
| 1777556444 | 5.56° C | 65% | 1017.8 hPa | 0 mm | - | 157 W/m² | - |
| 1777555839 | 5° C | 66% | 1018.1 hPa | 0 mm | - | 116 W/m² | - |
| 1777555535 | 4.44° C | 66% | 1017.8 hPa | 0 mm | - | 101 W/m² | - |
| 1777555232 | 4.44° C | 68% | 1017.8 hPa | 0 mm | - | 109 W/m² | - |
| 1777554929 | 3.89° C | 69% | 1018.1 hPa | 0 mm | - | 109 W/m² | - |
| 1777554626 | 3.89° C | 72% | 1018.1 hPa | 0 mm | - | 97 W/m² | - |
| 1777554322 | 3.89° C | 73% | 1018.1 hPa | 0 mm | - | 105 W/m² | - |
| 1777553716 | 3.33° C | 75% | 1018.1 hPa | 0 mm | - | 81 W/m² | - |
| 1777552505 | 2.78° C | 77% | 1017.8 hPa | 0 mm | - | 42 W/m² | - |
| 1777552201 | 2.78° C | 78% | 1018.1 hPa | 0 mm | - | 74 W/m² | - |
| 1777551898 | 2.78° C | 78% | 1018.1 hPa | 0 mm | - | 64 W/m² | - |
| 1777551595 | 2.78° C | 78% | 1018.1 hPa | 0 mm | - | 36 W/m² | - |
| 1777548258 | 1.67° C | 78% | 1018.5 hPa | 0 mm | - | 7 W/m² | - |
| 1777547954 | 1.67° C | 78% | 1018.5 hPa | 0 mm | - | 4 W/m² | - |
| 1777547650 | 1.67° C | 79% | 1018.5 hPa | 0 mm | - | 1 W/m² | - |
| 1777547347 | 1.67° C | 79% | 1018.5 hPa | 0 mm | - | 2 W/m² | - |
| 1777547045 | 1.67° C | 79% | 1018.8 hPa | 0 mm | - | 0 W/m² | - |
| 1777546742 | 1.67° C | 79% | 1018.5 hPa | 0 mm | - | 0 W/m² | - |
* Rain latest hour (hover to see other rain measurements)
** Current wind speed in m/s (hover to see current wind gust speed)